Main page
METAR-TAF:

METAR-TAF

Airports :

Los Garzones Airport

Montería, Colombia

latitude: 08-49N, longitude: 075-51W, elevation: 20 m

Current weather observation

The report was made 57 minutes ago, at 13:00 UTC
Calm wind
Temperature 28°C
Humidity 84%
Pressure 1012 hPa
Visibility 10 km or more
Scattered clouds at a height of 2000 ft
Scattered clouds at a height of 10000 ft

METAR: SKMR 051300Z 00000KT 9999 SCT020 SCT100 28/25 A2988

Time: 08:57 (13:57 UTC)


TAF: missing

Weather observations and forecasts of more than 4000 airports (METAR and TAF reports).

The available stations are represented by yellow and red dots on the map.

Hover mouse over dot to see the name of the station.

Then click to see weather observations and forecasts.

To change the map : click on the green buttons with a black cross to zoom in, on the green button with a dash to zoom out, or on the green arrows for adjacent maps.


METAR-TAF: